Time;durP1;ratioP1;P1;durP2;ratioP2;P2;SDS_P1;SDS_P2;PMS_P1;PMS_P2;Temp;Humidity;BMP_temperature;BMP_pressure;BME280_temperature;BME280_humidity;BME280_pressure;Samples;Min_cycle;Max_cycle;Signal;HPM_P1;HPM_P2
2023/04/19 00:00:02;;;;;;;9.13;5.10;;;9.20;99.90;;;;;;5088325;28;20202;-79
2023/04/19 00:02:32;;;;;;;8.17;5.00;;;9.10;99.90;;;;;;5098610;28;20194;-77
2023/04/19 00:04:59;;;;;;;8.77;5.13;;;9.10;99.90;;;;;;5097750;28;20226;-78
2023/04/19 00:07:26;;;;;;;9.07;5.03;;;9.10;99.90;;;;;;5095624;28;20224;-79
2023/04/19 00:09:53;;;;;;;8.20;5.00;;;9.10;99.90;;;;;;5097827;28;20221;-79
2023/04/19 00:12:19;;;;;;;7.47;4.67;;;9.00;99.90;;;;;;5098584;28;20215;-79
2023/04/19 00:14:46;;;;;;;7.27;4.67;;;9.00;99.90;;;;;;5080633;28;20237;-78
2023/04/19 00:17:13;;;;;;;8.80;5.10;;;9.10;99.90;;;;;;5078301;28;20205;-78
2023/04/19 00:19:41;;;;;;;6.23;3.93;;;9.00;99.90;;;;;;5077916;28;20229;-77
2023/04/19 00:22:08;;;;;;;6.70;4.27;;;9.00;99.90;;;;;;5078259;28;20202;-80
2023/04/19 00:24:35;;;;;;;6.87;4.40;;;9.00;99.90;;;;;;5085366;28;20225;-80
2023/04/19 00:27:02;;;;;;;8.10;4.30;;;8.90;99.90;;;;;;5076907;28;20229;-78
2023/04/19 00:29:29;;;;;;;6.27;3.77;;;8.90;99.90;;;;;;5080910;28;20233;-79
2023/04/19 00:31:56;;;;;;;7.57;4.10;;;8.80;99.90;;;;;;5077042;28;20221;-78
2023/04/19 00:34:22;;;;;;;6.67;4.40;;;8.90;99.90;;;;;;5080448;28;20210;-79
2023/04/19 00:36:51;;;;;;;8.23;4.13;;;8.80;99.90;;;;;;5078724;28;20202;-79
2023/04/19 00:39:17;;;;;;;6.37;4.47;;;8.90;99.90;;;;;;5077431;28;20221;-79
2023/04/19 00:41:44;;;;;;;9.47;4.03;;;8.70;99.90;;;;;;5090183;28;20604;-76
2023/04/19 00:44:11;;;;;;;6.93;4.27;;;8.60;99.90;;;;;;5088853;28;20194;-76
2023/04/19 00:46:38;;;;;;;6.27;4.10;;;8.60;99.90;;;;;;5092506;28;20194;-78
2023/04/19 00:49:05;;;;;;;6.30;3.57;;;8.60;99.90;;;;;;5095119;28;20206;-78
2023/04/19 00:51:32;;;;;;;8.67;3.37;;;8.50;99.90;;;;;;5077017;28;20202;-78
2023/04/19 00:54:02;;;;;;;4.83;3.50;;;8.40;99.90;;;;;;5094405;28;20569;-77
2023/04/19 00:56:30;;;;;;;6.63;4.40;;;8.30;99.90;;;;;;5097076;28;20203;-76
2023/04/19 00:58:57;;;;;;;5.87;3.50;;;8.30;99.90;;;;;;5095733;28;20550;-79
2023/04/19 01:01:24;;;;;;;5.40;3.10;;;8.10;99.90;;;;;;5097864;28;20194;-78
2023/04/19 01:03:51;;;;;;;5.70;3.60;;;8.10;99.90;;;;;;5077899;28;20206;-77
2023/04/19 01:06:18;;;;;;;7.87;3.20;;;8.00;99.90;;;;;;5076723;28;20226;-76
2023/04/19 01:08:44;;;;;;;4.83;2.73;;;7.80;99.90;;;;;;5077929;28;20208;-77
2023/04/19 01:11:12;;;;;;;6.23;4.03;;;7.70;99.90;;;;;;5085044;28;20213;-78
2023/04/19 01:13:39;;;;;;;6.63;3.47;;;7.60;99.90;;;;;;5078497;28;20198;-78
2023/04/19 01:16:07;;;;;;;4.37;2.97;;;7.40;99.90;;;;;;5083749;28;20218;-77
2023/04/19 01:18:36;;;;;;;4.27;2.90;;;7.30;99.90;;;;;;5076301;28;20229;-78
2023/04/19 01:21:03;;;;;;;5.93;3.63;;;7.10;99.90;;;;;;5076995;28;20620;-77
2023/04/19 01:23:31;;;;;;;7.03;3.30;;;6.90;99.90;;;;;;5077650;28;20815;-79
2023/04/19 01:26:00;;;;;;;5.70;3.00;;;6.80;99.90;;;;;;5090275;28;20222;-77
2023/04/19 01:28:26;;;;;;;5.57;3.13;;;6.70;99.90;;;;;;5077179;28;20643;-77
2023/04/19 01:30:53;;;;;;;6.47;3.73;;;6.60;99.90;;;;;;5092827;28;20212;-78
2023/04/19 01:33:20;;;;;;;5.17;3.10;;;6.50;99.90;;;;;;5092600;28;20217;-79
2023/04/19 01:35:48;;;;;;;5.63;3.60;;;6.40;99.90;;;;;;5095617;28;20223;-77
2023/04/19 01:38:14;;;;;;;5.70;3.83;;;6.40;99.90;;;;;;5084941;28;20271;-77
2023/04/19 01:40:43;;;;;;;6.37;3.80;;;6.20;99.90;;;;;;5089998;28;20200;-78
2023/04/19 01:43:13;;;;;;;6.33;3.83;;;6.00;99.90;;;;;;5094368;28;20198;-78
2023/04/19 01:45:40;;;;;;;6.83;3.93;;;6.00;99.90;;;;;;5091673;28;20620;-78
2023/04/19 01:48:07;;;;;;;8.97;3.70;;;5.90;99.90;;;;;;5077639;28;20225;-78
2023/04/19 01:50:34;;;;;;;6.77;3.80;;;5.80;99.90;;;;;;5077716;28;20202;-77
2023/04/19 01:53:01;;;;;;;7.97;3.70;;;5.80;99.90;;;;;;5080456;28;20194;-76
2023/04/19 01:55:29;;;;;;;6.00;3.60;;;5.90;99.90;;;;;;5086260;28;20271;-76
2023/04/19 01:57:57;;;;;;;10.03;3.80;;;5.80;99.90;;;;;;5076774;28;20209;-77
2023/04/19 02:00:24;;;;;;;7.50;4.10;;;5.70;99.90;;;;;;5083954;28;20221;-77
2023/04/19 02:02:51;;;;;;;9.97;4.33;;;5.50;99.90;;;;;;5088751;28;20205;-79
2023/04/19 02:05:17;;;;;;;8.07;4.10;;;5.40;99.90;;;;;;5077830;28;20233;-78
2023/04/19 02:07:44;;;;;;;7.47;4.03;;;5.20;99.90;;;;;;5076910;28;20198;-77
2023/04/19 02:10:11;;;;;;;5.53;3.87;;;5.20;99.90;;;;;;5076910;28;20202;-78
2023/04/19 02:12:38;;;;;;;6.47;3.80;;;5.30;99.90;;;;;;5095333;28;20202;-77
2023/04/19 02:15:07;;;;;;;9.17;4.13;;;5.20;99.90;;;;;;5092108;28;20686;-77
2023/04/19 02:17:34;;;;;;;7.27;4.10;;;5.30;99.90;;;;;;5078227;28;20206;-76
2023/04/19 02:20:03;;;;;;;6.60;3.97;;;5.30;99.90;;;;;;5078156;28;20585;-78
2023/04/19 02:22:29;;;;;;;6.27;3.60;;;5.30;99.90;;;;;;5096923;28;20233;-78
2023/04/19 02:24:56;;;;;;;7.47;3.97;;;5.20;99.90;;;;;;5097519;28;20232;-78
2023/04/19 02:27:23;;;;;;;6.43;3.93;;;5.30;99.90;;;;;;5097226;28;20216;-77
2023/04/19 02:29:50;;;;;;;9.53;4.10;;;5.20;99.90;;;;;;5097458;28;20202;-77
2023/04/19 02:32:18;;;;;;;6.67;3.90;;;5.10;99.90;;;;;;5098155;28;20212;-78
2023/04/19 02:34:45;;;;;;;5.97;4.20;;;5.10;99.90;;;;;;5083256;28;20210;-76
2023/04/19 02:37:11;;;;;;;9.93;4.10;;;5.00;99.90;;;;;;5077427;28;20265;-77
2023/04/19 02:39:40;;;;;;;10.20;5.43;;;5.00;99.90;;;;;;5076167;28;20222;-77
2023/04/19 02:42:07;;;;;;;6.03;4.43;;;4.90;99.90;;;;;;5076622;28;20206;-78
2023/04/19 02:44:34;;;;;;;5.40;4.20;;;4.80;99.90;;;;;;5075739;28;20222;-79
2023/04/19 02:47:00;;;;;;;6.97;4.67;;;4.70;99.90;;;;;;5090333;28;20228;-79
2023/04/19 02:49:33;;;;;;;6.70;4.17;;;4.70;99.90;;;;;;5088933;28;20800;-77
2023/04/19 02:52:00;;;;;;;6.67;4.50;;;4.60;99.90;;;;;;5075682;28;20280;-77
2023/04/19 02:54:26;;;;;;;6.33;4.03;;;4.50;99.90;;;;;;5076032;28;20291;-78
2023/04/19 02:56:53;;;;;;;7.20;3.80;;;4.40;99.90;;;;;;5076050;28;20678;-78
2023/04/19 02:59:20;;;;;;;6.53;4.10;;;4.30;99.90;;;;;;5074880;28;20228;-77
2023/04/19 03:01:47;;;;;;;5.77;4.27;;;4.30;99.90;;;;;;5078478;28;20653;-78
2023/04/19 03:04:13;;;;;;;6.27;4.17;;;4.30;99.90;;;;;;5095630;28;20206;-77
2023/04/19 03:06:43;;;;;;;8.37;4.23;;;4.30;99.90;;;;;;5096113;28;20209;-76
2023/04/19 03:09:10;;;;;;;7.43;4.20;;;4.20;99.90;;;;;;5096164;28;20193;-78
2023/04/19 03:11:37;;;;;;;8.97;4.33;;;4.30;99.90;;;;;;5096008;28;20217;-78
2023/04/19 03:14:04;;;;;;;6.37;4.10;;;3.90;99.90;;;;;;5094355;28;20667;-78
2023/04/19 03:16:31;;;;;;;8.63;4.30;;;3.80;99.90;;;;;;5076822;28;20568;-76
2023/04/19 03:18:57;;;;;;;7.73;4.10;;;3.60;99.90;;;;;;5076672;28;20232;-76
2023/04/19 03:21:26;;;;;;;6.23;4.03;;;3.60;99.90;;;;;;5079675;28;20571;-77
2023/04/19 03:23:54;;;;;;;10.03;4.77;;;3.50;99.90;;;;;;5088636;28;20247;-77
2023/04/19 03:26:21;;;;;;;7.63;4.67;;;3.40;99.90;;;;;;5099965;28;20236;-78
2023/04/19 03:28:48;;;;;;;6.13;4.67;;;3.30;99.90;;;;;;5099669;28;20198;-78
2023/04/19 03:31:15;;;;;;;6.73;4.10;;;3.30;99.90;;;;;;5098920;28;20737;-80
2023/04/19 03:33:42;;;;;;;7.83;4.70;;;3.10;99.90;;;;;;5100059;28;20682;-78
2023/04/19 03:36:09;;;;;;;8.90;4.30;;;3.20;99.90;;;;;;5099029;28;20308;-79
2023/04/19 03:38:37;;;;;;;9.43;4.53;;;3.30;99.90;;;;;;5099579;28;20198;-77
2023/04/19 03:41:05;;;;;;;8.70;4.23;;;3.30;99.90;;;;;;5099715;28;20197;-79
2023/04/19 03:43:32;;;;;;;5.97;4.20;;;3.30;99.90;;;;;;5100327;28;20197;-78
2023/04/19 03:45:58;;;;;;;7.07;4.57;;;3.30;99.90;;;;;;5089837;28;20224;-77
2023/04/19 03:48:26;;;;;;;7.67;4.10;;;3.30;99.90;;;;;;5078930;28;20206;-78
2023/04/19 03:50:53;;;;;;;9.33;4.60;;;3.20;99.90;;;;;;5079961;28;20195;-78
2023/04/19 03:53:20;;;;;;;5.70;3.93;;;3.10;99.90;;;;;;5084411;28;20205;-78
2023/04/19 03:55:47;;;;;;;9.23;4.27;;;3.10;99.90;;;;;;5079801;28;20229;-78
2023/04/19 03:58:15;;;;;;;8.17;4.33;;;3.20;99.90;;;;;;5077896;28;20216;-78
2023/04/19 04:00:41;;;;;;;9.87;5.23;;;3.20;99.90;;;;;;5092615;28;20700;-77
2023/04/19 04:03:08;;;;;;;9.00;4.70;;;3.30;99.90;;;;;;5080478;28;20202;-77
2023/04/19 04:05:36;;;;;;;6.17;4.03;;;3.20;99.90;;;;;;5077556;28;20291;-77
2023/04/19 04:08:03;;;;;;;6.73;3.90;;;3.10;99.90;;;;;;5085364;28;20230;-78
2023/04/19 04:10:30;;;;;;;8.70;4.10;;;3.10;99.90;;;;;;5076328;28;20251;-78
2023/04/19 04:12:58;;;;;;;7.50;4.20;;;3.10;99.90;;;;;;5077216;28;20240;-78
2023/04/19 04:15:26;;;;;;;5.67;3.90;;;3.20;99.90;;;;;;5094467;28;20220;-78
2023/04/19 04:17:53;;;;;;;6.00;4.07;;;3.20;99.90;;;;;;5077274;28;20389;-79
2023/04/19 04:20:20;;;;;;;8.57;4.00;;;3.20;99.90;;;;;;5077308;28;20229;-79
2023/04/19 04:22:47;;;;;;;8.17;4.37;;;3.20;99.90;;;;;;5078237;28;20198;-79
2023/04/19 04:25:14;;;;;;;7.00;3.77;;;3.40;99.90;;;;;;5077915;28;20226;-76
2023/04/19 04:27:42;;;;;;;6.93;3.80;;;3.40;99.90;;;;;;5096980;28;20219;-78
2023/04/19 04:30:11;;;;;;;7.10;4.33;;;3.60;99.90;;;;;;5078665;28;20677;-79
2023/04/19 04:32:39;;;;;;;8.13;3.90;;;3.90;99.90;;;;;;5083250;28;20202;-79
2023/04/19 04:35:08;;;;;;;8.93;4.43;;;4.10;99.90;;;;;;5088195;28;20641;-77
2023/04/19 04:37:35;;;;;;;6.97;3.43;;;4.30;99.90;;;;;;5081762;28;20720;-76
2023/04/19 04:40:04;;;;;;;7.10;3.90;;;4.50;99.90;;;;;;5079194;28;20214;-76
2023/04/19 04:42:31;;;;;;;10.27;4.03;;;4.40;99.90;;;;;;5077527;28;20210;-76
2023/04/19 04:45:00;;;;;;;8.13;3.87;;;4.40;99.90;;;;;;5078644;28;20217;-76
2023/04/19 04:47:31;;;;;;;7.87;3.13;;;4.70;99.90;;;;;;5081655;28;20266;-77
2023/04/19 04:49:59;;;;;;;7.27;3.70;;;4.70;99.90;;;;;;5079651;28;20232;-77
2023/04/19 04:52:26;;;;;;;5.83;3.77;;;5.20;99.90;;;;;;5078514;28;20205;-77
2023/04/19 04:54:56;;;;;;;6.33;4.10;;;5.20;99.90;;;;;;5077382;28;20234;-77
2023/04/19 04:57:24;;;;;;;6.77;3.63;;;5.30;99.90;;;;;;5081361;28;20199;-79
2023/04/19 04:59:50;;;;;;;7.00;3.53;;;5.30;99.90;;;;;;5081464;28;20211;-78
2023/04/19 05:02:17;;;;;;;5.27;3.07;;;5.40;99.90;;;;;;5085969;28;20209;-77
2023/04/19 05:04:44;;;;;;;6.83;2.63;;;5.30;99.90;;;;;;5083742;28;20222;-77
2023/04/19 05:07:12;;;;;;;4.87;3.33;;;5.10;99.90;;;;;;5093936;28;20318;-79
2023/04/19 05:09:39;;;;;;;7.00;2.93;;;5.00;99.90;;;;;;5096389;28;20202;-76
2023/04/19 05:12:07;;;;;;;6.77;3.70;;;5.10;99.90;;;;;;5096232;28;20578;-78
2023/04/19 05:14:33;;;;;;;7.57;3.17;;;5.10;99.90;;;;;;5089776;28;20228;-76
2023/04/19 05:17:00;;;;;;;7.00;2.93;;;5.10;99.90;;;;;;5081926;28;20210;-76
2023/04/19 05:19:27;;;;;;;4.00;2.90;;;5.20;99.90;;;;;;5088722;28;20230;-77
2023/04/19 05:21:54;;;;;;;6.63;2.97;;;5.40;99.90;;;;;;5084916;28;20205;-76
2023/04/19 05:24:23;;;;;;;5.10;2.93;;;5.70;99.90;;;;;;5083954;28;20295;-77
2023/04/19 05:26:49;;;;;;;7.17;2.53;;;5.90;99.90;;;;;;5093882;28;20197;-77
2023/04/19 05:29:17;;;;;;;4.83;2.73;;;6.10;99.90;;;;;;5085619;28;20207;-77
2023/04/19 05:31:44;;;;;;;8.97;3.60;;;6.00;99.90;;;;;;5078088;28;20463;-77
2023/04/19 05:34:11;;;;;;;4.53;2.83;;;6.00;99.90;;;;;;5087900;28;20206;-77
2023/04/19 05:36:39;;;;;;;8.33;3.73;;;6.10;99.90;;;;;;5086416;28;20689;-77
2023/04/19 05:39:06;;;;;;;5.17;2.80;;;6.40;99.90;;;;;;5084567;28;20216;-79
2023/04/19 05:41:34;;;;;;;3.50;2.40;;;6.80;99.90;;;;;;5084872;28;20673;-79
2023/04/19 05:44:01;;;;;;;3.60;2.00;;;7.00;99.90;;;;;;5082796;28;20212;-79
2023/04/19 05:46:27;;;;;;;6.83;2.60;;;6.70;99.90;;;;;;5090711;28;20197;-78
2023/04/19 05:48:54;;;;;;;8.23;3.40;;;6.50;99.90;;;;;;5083750;28;20198;-79
2023/04/19 05:51:21;;;;;;;6.53;2.80;;;6.60;99.90;;;;;;5089372;28;20211;-78
2023/04/19 05:53:48;;;;;;;4.97;2.37;;;6.50;99.90;;;;;;5083742;28;20198;-79
2023/04/19 05:56:15;;;;;;;3.30;2.40;;;6.60;99.90;;;;;;5079777;28;20226;-77
2023/04/19 05:58:43;;;;;;;4.93;2.27;;;7.20;99.90;;;;;;5089660;28;20201;-79
2023/04/19 06:01:10;;;;;;;5.57;2.57;;;7.30;99.90;;;;;;5091493;28;20226;-78
2023/04/19 06:03:37;;;;;;;4.33;2.37;;;7.50;99.90;;;;;;5090873;28;20262;-76
2023/04/19 06:06:04;;;;;;;4.43;2.27;;;7.20;99.90;;;;;;5085949;28;20232;-78
2023/04/19 06:08:32;;;;;;;3.43;2.63;;;8.00;99.90;;;;;;5094349;28;20203;-79
2023/04/19 06:10:59;;;;;;;3.60;2.07;;;7.80;99.90;;;;;;5084108;28;20255;-77
2023/04/19 06:13:27;;;;;;;4.53;2.40;;;7.30;99.90;;;;;;5092109;28;20193;-78
2023/04/19 06:15:55;;;;;;;4.27;2.27;;;7.20;99.90;;;;;;5081214;28;20780;-76
2023/04/19 06:18:21;;;;;;;4.70;2.73;;;7.30;99.90;;;;;;5081209;28;20209;-77
2023/04/19 06:20:48;;;;;;;3.43;1.77;;;7.80;99.90;;;;;;5087196;28;20217;-76
2023/04/19 06:23:17;;;;;;;3.17;2.13;;;8.30;99.90;;;;;;5085603;28;20210;-77
2023/04/19 06:25:44;;;;;;;3.33;2.33;;;8.50;99.90;;;;;;5077167;28;20246;-77
2023/04/19 06:28:11;;;;;;;5.17;2.23;;;9.20;99.90;;;;;;5082462;28;20198;-77
2023/04/19 06:30:38;;;;;;;4.93;2.63;;;9.30;99.90;;;;;;5087133;28;20252;-78
2023/04/19 06:33:06;;;;;;;4.30;2.27;;;9.30;99.90;;;;;;5085502;28;20632;-78
2023/04/19 06:35:33;;;;;;;6.03;2.33;;;9.30;99.90;;;;;;5079772;28;20633;-78
2023/04/19 06:38:00;;;;;;;6.03;2.90;;;9.50;99.90;;;;;;5084359;28;20202;-78
2023/04/19 06:40:28;;;;;;;3.93;2.40;;;8.60;99.90;;;;;;5077353;28;20260;-79
2023/04/19 06:42:55;;;;;;;3.50;2.07;;;8.70;99.90;;;;;;5089667;28;20566;-78
2023/04/19 06:45:22;;;;;;;6.37;2.43;;;9.30;99.90;;;;;;5080501;28;20228;-76
2023/04/19 06:47:48;;;;;;;3.03;2.10;;;9.50;99.90;;;;;;5082097;28;20257;-78
2023/04/19 06:50:17;;;;;;;3.70;2.33;;;9.30;99.90;;;;;;5082212;28;20209;-77
2023/04/19 06:52:45;;;;;;;2.80;1.90;;;9.30;99.90;;;;;;5080407;28;20233;-78
2023/04/19 06:55:12;;;;;;;3.20;2.10;;;9.20;99.90;;;;;;5091174;28;20730;-77
2023/04/19 06:57:39;;;;;;;4.07;2.17;;;9.20;99.90;;;;;;5094059;28;20261;-78
2023/04/19 07:00:07;;;;;;;6.10;2.40;;;9.00;99.90;;;;;;5092116;28;20320;-79
2023/04/19 07:02:35;;;;;;;2.80;2.03;;;8.90;99.90;;;;;;5092900;28;20235;-79
2023/04/19 07:05:02;;;;;;;3.30;2.30;;;9.30;99.90;;;;;;5088670;28;20309;-77
2023/04/19 07:07:32;;;;;;;3.30;2.30;;;9.40;99.90;;;;;;5094629;28;20206;-78
2023/04/19 07:09:58;;;;;;;3.70;2.30;;;9.30;99.90;;;;;;5092239;28;20293;-77
2023/04/19 07:12:26;;;;;;;2.40;1.83;;;9.10;99.90;;;;;;5086449;28;20212;-78
2023/04/19 07:14:55;;;;;;;3.10;2.20;;;8.80;99.90;;;;;;5087201;28;20248;-76
2023/04/19 07:17:22;;;;;;;5.10;2.30;;;9.60;99.90;;;;;;5096514;28;20674;-78
2023/04/19 07:19:49;;;;;;;2.60;1.90;;;10.30;99.90;;;;;;5094340;28;20658;-77
2023/04/19 07:22:16;;;;;;;5.13;2.30;;;9.50;99.90;;;;;;5092578;28;20627;-77
2023/04/19 07:24:44;;;;;;;5.90;2.50;;;9.50;99.90;;;;;;5089945;28;20228;-76
2023/04/19 07:27:11;;;;;;;3.23;2.37;;;9.70;99.90;;;;;;5087425;28;20198;-77
2023/04/19 07:29:39;;;;;;;4.70;2.23;;;9.30;99.90;;;;;;5091029;28;20205;-78
2023/04/19 07:32:05;;;;;;;5.47;2.40;;;9.10;99.90;;;;;;5092746;28;20194;-78
2023/04/19 07:34:32;;;;;;;2.63;2.37;;;9.10;99.90;;;;;;5100671;28;20701;-76
2023/04/19 07:36:59;;;;;;;2.33;2.03;;;9.60;99.90;;;;;;5094546;28;20217;-76
2023/04/19 07:39:26;;;;;;;2.60;2.13;;;9.80;99.90;;;;;;5097593;28;20204;-77
2023/04/19 07:41:54;;;;;;;4.07;2.07;;;9.50;99.90;;;;;;5098605;28;20229;-77
2023/04/19 07:44:20;;;;;;;2.30;2.10;;;9.40;99.90;;;;;;5079902;28;20222;-77
2023/04/19 07:46:49;;;;;;;5.20;2.43;;;9.30;99.90;;;;;;5080327;28;20206;-76
2023/04/19 07:49:16;;;;;;;4.00;2.37;;;9.20;99.90;;;;;;5090167;28;20658;-78
2023/04/19 07:51:43;;;;;;;3.17;2.33;;;9.40;99.90;;;;;;5101327;28;20209;-76
2023/04/19 07:54:10;;;;;;;4.20;2.47;;;9.20;99.90;;;;;;5089415;28;20571;-76
2023/04/19 07:56:39;;;;;;;3.90;2.37;;;9.30;99.90;;;;;;5089823;28;20194;-77
2023/04/19 07:59:07;;;;;;;4.23;2.53;;;9.40;99.90;;;;;;5091239;28;20210;-77
2023/04/19 08:01:35;;;;;;;2.23;1.70;;;9.60;99.90;;;;;;5094086;28;20233;-78
2023/04/19 08:04:02;;;;;;;3.10;2.03;;;9.30;99.90;;;;;;5087577;28;20210;-76
2023/04/19 08:06:29;;;;;;;3.77;2.30;;;9.20;99.90;;;;;;5095375;28;20579;-77
2023/04/19 08:08:56;;;;;;;3.20;2.23;;;9.30;99.90;;;;;;5092842;28;20335;-78
2023/04/19 08:11:24;;;;;;;4.90;2.87;;;9.40;99.90;;;;;;5094014;28;20687;-79
2023/04/19 08:13:50;;;;;;;3.93;2.83;;;9.40;99.90;;;;;;5088004;28;20243;-78
2023/04/19 08:16:19;;;;;;;3.77;2.40;;;9.50;99.90;;;;;;5096355;28;20231;-77
2023/04/19 08:18:47;;;;;;;3.67;2.30;;;9.50;99.90;;;;;;5093540;28;20199;-79
2023/04/19 08:21:14;;;;;;;3.63;2.40;;;9.30;99.90;;;;;;5090214;28;20229;-79
2023/04/19 08:23:42;;;;;;;5.17;2.57;;;9.60;99.90;;;;;;5100460;28;20197;-80
2023/04/19 08:26:09;;;;;;;4.27;2.47;;;9.80;99.90;;;;;;5087458;28;20227;-79
2023/04/19 08:28:35;;;;;;;3.27;2.80;;;9.70;99.90;;;;;;5093401;28;20555;-78
2023/04/19 08:31:06;;;;;;;3.47;2.70;;;9.80;99.90;;;;;;5083998;28;20293;-79
2023/04/19 08:33:34;;;;;;;3.37;2.30;;;9.80;99.90;;;;;;5082256;28;20228;-79
2023/04/19 08:36:01;;;;;;;3.90;2.37;;;9.90;99.90;;;;;;5095348;28;20309;-78
2023/04/19 08:38:27;;;;;;;2.30;2.10;;;9.90;99.90;;;;;;5097689;28;20193;-76
2023/04/19 08:40:55;;;;;;;3.27;2.30;;;10.20;99.90;;;;;;5091098;28;20221;-79
2023/04/19 08:43:24;;;;;;;3.57;2.20;;;10.10;99.90;;;;;;5092356;28;20200;-79
2023/04/19 08:45:51;;;;;;;4.13;2.43;;;10.20;99.90;;;;;;5098881;28;20264;-80
2023/04/19 08:48:18;;;;;;;3.93;2.97;;;10.20;99.90;;;;;;5090839;28;20201;-78
2023/04/19 08:50:48;;;;;;;3.23;2.23;;;10.40;99.90;;;;;;5085337;28;20196;-80
2023/04/19 08:53:16;;;;;;;5.50;2.33;;;10.70;99.90;;;;;;5078620;28;20208;-78
2023/04/19 08:55:43;;;;;;;4.03;2.40;;;10.60;99.90;;;;;;5079404;28;20218;-77
2023/04/19 08:58:10;;;;;;;4.10;2.80;;;10.70;99.90;;;;;;5078774;28;20285;-79
2023/04/19 09:00:39;;;;;;;4.63;2.33;;;11.00;99.90;;;;;;5087596;28;20253;-78
2023/04/19 09:03:07;;;;;;;5.20;2.70;;;11.00;99.90;;;;;;5099155;28;20201;-78
2023/04/19 09:05:34;;;;;;;4.77;2.90;;;11.10;99.90;;;;;;5084983;28;20232;-81
2023/04/19 09:08:22;;;;;;;3.53;2.27;;;11.20;99.90;;;;;;5092640;28;20726;-77
2023/04/19 09:10:53;;;;;;;3.70;2.47;;;11.50;99.90;;;;;;5097257;28;20206;-81
2023/04/19 09:13:20;;;;;;;3.83;2.77;;;11.90;99.90;;;;;;5093928;28;20705;-80
2023/04/19 09:15:47;;;;;;;3.17;2.43;;;12.20;99.90;;;;;;5108633;28;20209;-78
2023/04/19 09:18:14;;;;;;;3.17;2.63;;;11.80;99.90;;;;;;5102619;28;20216;-79
2023/04/19 09:20:42;;;;;;;4.80;2.80;;;11.80;99.90;;;;;;5097016;28;20302;-80
2023/04/19 09:23:12;;;;;;;3.73;2.90;;;12.30;99.90;;;;;;5094223;28;20263;-80
2023/04/19 09:25:39;;;;;;;3.83;3.07;;;12.40;99.90;;;;;;5091431;28;20286;-79
2023/04/19 09:28:10;;;;;;;4.13;2.40;;;12.30;99.90;;;;;;5089890;28;20288;-79
2023/04/19 09:30:37;;;;;;;3.57;2.30;;;11.90;99.90;;;;;;5097677;28;20198;-80
2023/04/19 09:33:04;;;;;;;3.37;2.20;;;12.10;99.90;;;;;;5087976;28;20202;-76
2023/04/19 09:35:42;;;;;;;3.00;2.10;;;12.40;91.30;;;;;;5077541;28;20226;-80
2023/04/19 09:38:10;;;;;;;3.93;2.40;;;12.50;73.50;;;;;;5091895;28;20556;-79
2023/04/19 09:40:41;;;;;;;3.73;1.70;;;12.30;48.30;;;;;;5097345;28;20646;-78
2023/04/19 09:43:08;;;;;;;2.50;2.03;;;12.10;35.60;;;;;;5087593;28;20206;-80
2023/04/19 09:45:42;;;;;;;8.63;2.17;;;12.40;53.50;;;;;;5086559;28;20210;-79
2023/04/19 09:48:09;;;;;;;2.27;2.07;;;12.10;27.50;;;;;;5077400;28;20194;-79
2023/04/19 09:50:50;;;;;;;2.53;1.80;;;12.40;44.70;;;;;;5094960;28;20193;-78
2023/04/19 09:53:17;;;;;;;6.03;2.07;;;12.50;99.90;;;;;;5098240;28;20239;-77
2023/04/19 09:55:46;;;;;;;3.30;1.70;;;12.70;99.90;;;;;;5097713;28;20236;-79
2023/04/19 09:58:13;;;;;;;3.63;1.80;;;12.50;99.90;;;;;;5097883;28;20205;-77
2023/04/19 10:00:41;;;;;;;2.40;2.10;;;12.70;99.90;;;;;;5082079;28;20233;-79
2023/04/19 10:03:09;;;;;;;2.67;2.13;;;12.60;99.90;;;;;;5077813;28;20202;-78
2023/04/19 10:05:41;;;;;;;3.73;2.63;;;12.90;99.90;;;;;;5077850;28;20228;-79
2023/04/19 10:08:08;;;;;;;3.20;2.33;;;12.90;99.90;;;;;;5076543;28;20213;-78
2023/04/19 10:10:36;;;;;;;2.73;2.27;;;12.70;3.10;;;;;;5090803;28;20241;-77
2023/04/19 10:13:07;;;;;;;2.70;2.30;;;12.60;1.00;;;;;;5096408;28;20224;-79
2023/04/19 10:15:35;;;;;;;3.53;2.40;;;13.00;1.00;;;;;;5077682;28;20340;-78
2023/04/19 10:18:03;;;;;;;2.63;2.03;;;13.10;1.00;;;;;;5092054;28;20589;-78
2023/04/19 10:20:35;;;;;;;2.47;2.27;;;12.90;1.00;;;;;;5090487;28;20544;-76
2023/04/19 10:23:03;;;;;;;2.47;1.97;;;12.60;1.00;;;;;;5096346;28;20190;-78
2023/04/19 10:25:30;;;;;;;4.03;2.03;;;12.90;1.00;;;;;;5084503;28;20256;-79
2023/04/19 10:27:57;;;;;;;2.40;2.17;;;12.90;1.00;;;;;;5078426;28;20201;-79
2023/04/19 10:30:27;;;;;;;3.80;1.80;;;13.00;1.00;;;;;;5077002;28;20309;-77
2023/04/19 11:09:58;;;;;;;2.60;1.93;;;13.60;99.90;;;;;;5095552;28;20281;-80
2023/04/19 11:12:25;;;;;;;3.47;2.00;;;13.60;99.90;;;;;;5080875;28;20201;-80
2023/04/19 12:00:05;;;;;;;2.87;2.27;;;13.90;1.00;;;;;;5115956;27;20573;-78
2023/04/19 12:02:37;;;;;;;2.60;2.30;;;13.70;1.00;;;;;;5131725;27;20196;-78
2023/04/19 12:05:08;;;;;;;3.37;2.00;;;14.00;1.00;;;;;;5133721;27;20218;-78
2023/04/19 12:07:35;;;;;;;4.43;2.73;;;13.90;1.00;;;;;;5141865;27;20227;-79
2023/04/19 12:10:10;;;;;;;4.00;2.80;;;13.70;1.00;;;;;;5126477;27;20288;-79
2023/04/19 12:12:37;;;;;;;4.93;2.60;;;13.80;1.00;;;;;;5139689;27;20198;-79
2023/04/19 12:15:06;;;;;;;3.73;2.10;;;13.90;1.00;;;;;;5133042;27;20296;-78
2023/04/19 12:17:33;;;;;;;3.53;2.37;;;13.90;1.00;;;;;;5133928;27;20649;-78
2023/04/19 12:19:59;;;;;;;4.33;2.43;;;13.30;1.00;;;;;;5133696;27;20216;-79
2023/04/19 12:22:26;;;;;;;4.83;2.60;;;13.50;1.00;;;;;;5139639;27;20203;-77
2023/04/19 12:24:54;;;;;;;2.63;2.30;;;13.50;99.90;;;;;;5140792;27;20218;-78
2023/04/19 12:27:21;;;;;;;3.10;2.23;;;13.80;1.00;;;;;;5136701;27;20302;-79
2023/04/19 12:29:48;;;;;;;4.30;2.27;;;13.90;99.90;;;;;;5135626;27;20227;-78
2023/04/19 12:32:16;;;;;;;3.47;2.30;;;13.80;99.90;;;;;;5131699;27;20203;-78
2023/04/19 12:34:43;;;;;;;3.20;1.80;;;13.60;99.90;;;;;;5139230;27;20196;-79
2023/04/19 12:37:10;;;;;;;5.17;2.60;;;13.10;99.90;;;;;;5141441;27;20269;-78
2023/04/19 12:39:37;;;;;;;3.00;2.43;;;12.50;99.90;;;;;;5139042;27;20220;-79
2023/04/19 12:42:04;;;;;;;6.47;2.67;;;13.40;99.90;;;;;;5144777;27;20200;-78
2023/04/19 12:44:31;;;;;;;6.57;2.83;;;13.70;99.90;;;;;;5147600;27;20581;-79
2023/04/19 12:46:58;;;;;;;3.87;2.00;;;13.80;99.90;;;;;;5142499;27;20223;-79
2023/04/19 12:49:26;;;;;;;3.33;1.97;;;13.80;99.90;;;;;;5143988;27;20223;-79
2023/04/19 12:51:53;;;;;;;9.60;2.63;;;13.50;99.90;;;;;;5129255;27;20216;-78
2023/04/19 12:54:20;;;;;;;4.27;2.67;;;14.10;99.90;;;;;;5132212;28;20236;-78
2023/04/19 12:56:46;;;;;;;3.63;2.40;;;14.20;99.90;;;;;;5140556;27;20196;-79
2023/04/19 12:59:14;;;;;;;4.77;2.40;;;13.70;99.90;;;;;;5134860;27;20928;-78
2023/04/19 13:01:40;;;;;;;4.57;2.60;;;12.80;1.00;;;;;;5126626;27;20806;-79
2023/04/19 13:04:10;;;;;;;6.03;2.90;;;12.40;1.00;;;;;;5128104;27;20213;-77
2023/04/19 13:06:39;;;;;;;5.20;2.83;;;12.50;1.00;;;;;;5119039;28;20197;-80
2023/04/19 13:09:06;;;;;;;4.63;2.80;;;13.00;1.00;;;;;;5119791;27;20216;-79
2023/04/19 13:11:33;;;;;;;4.73;2.60;;;13.80;41.50;;;;;;5114927;27;20206;-80
2023/04/19 13:14:00;;;;;;;6.13;2.90;;;13.60;1.00;;;;;;5121905;27;20201;-80
2023/04/19 13:16:27;;;;;;;7.13;2.80;;;13.10;1.00;;;;;;5114763;28;20209;-80
2023/04/19 13:18:57;;;;;;;6.57;1.90;;;12.60;1.00;;;;;;5104598;28;20682;-79
2023/04/19 13:21:24;;;;;;;5.27;2.90;;;12.50;1.00;;;;;;5115982;28;20209;-80
2023/04/19 13:23:52;;;;;;;5.20;2.70;;;12.60;1.00;;;;;;5116454;28;20197;-80
2023/04/19 13:26:19;;;;;;;4.87;2.93;;;12.50;1.00;;;;;;5102534;28;20201;-80
2023/04/19 13:28:46;;;;;;;4.87;3.00;;;12.60;1.00;;;;;;5118472;28;20221;-80
2023/04/19 13:31:12;;;;;;;3.83;2.53;;;12.70;1.00;;;;;;5110246;28;20207;-81
2023/04/19 13:33:39;;;;;;;4.23;2.80;;;12.50;1.00;;;;;;5110906;28;20201;-80
2023/04/19 13:36:07;;;;;;;6.17;3.13;;;12.50;1.00;;;;;;5109111;28;20205;-80
2023/04/19 13:38:34;;;;;;;4.07;3.03;;;12.40;1.00;;;;;;5105640;28;20213;-80
2023/04/19 13:41:02;;;;;;;4.07;3.07;;;12.40;1.00;;;;;;5106564;28;20225;-79
2023/04/19 13:43:29;;;;;;;5.30;3.30;;;12.80;1.00;;;;;;5112401;28;20846;-80
2023/04/19 13:45:56;;;;;;;5.97;3.03;;;13.20;1.00;;;;;;5107830;28;20708;-79
2023/04/19 13:48:22;;;;;;;5.93;3.37;;;13.00;1.00;;;;;;5116401;28;20596;-79
2023/04/19 13:50:51;;;;;;;4.83;3.13;;;13.20;1.00;;;;;;5108479;28;20236;-80
2023/04/19 13:53:18;;;;;;;6.47;3.23;;;13.30;1.00;;;;;;5108988;28;20205;-79
2023/04/19 13:55:44;;;;;;;4.20;3.37;;;13.60;1.00;;;;;;5109037;28;20197;-79
2023/04/19 13:58:12;;;;;;;5.43;3.47;;;13.90;1.00;;;;;;5116451;28;20228;-79
2023/04/19 14:00:39;;;;;;;8.10;3.50;;;13.60;1.00;;;;;;5105445;28;20201;-80
2023/04/19 14:03:06;;;;;;;6.27;3.33;;;13.10;1.00;;;;;;5113768;28;20197;-80
2023/04/19 14:05:33;;;;;;;6.33;3.73;;;12.80;1.00;;;;;;5111410;28;20201;-78
2023/04/19 14:08:00;;;;;;;5.53;3.70;;;12.50;1.00;;;;;;5112391;28;20229;-80
2023/04/19 14:10:26;;;;;;;3.73;2.70;;;12.20;1.00;;;;;;5104687;28;20209;-78
2023/04/19 14:12:54;;;;;;;4.50;3.03;;;12.30;1.00;;;;;;5104994;28;20280;-78
2023/04/19 14:15:24;;;;;;;5.60;3.23;;;13.00;1.00;;;;;;5117841;28;20228;-78
2023/04/19 14:17:51;;;;;;;3.47;2.83;;;13.10;1.00;;;;;;5109415;28;20190;-79